createdAt,value
2019-03-15T00:01:42.795Z,98911.48
2019-03-15T00:04:12.471Z,98904.65
2019-03-15T00:06:41.836Z,98895.06
2019-03-15T00:09:11.279Z,98905.86
2019-03-15T00:11:40.654Z,98913.77
2019-03-15T00:14:10.087Z,98925.16
2019-03-15T00:16:39.454Z,98910.03
2019-03-15T00:19:08.835Z,98920.34
2019-03-15T00:21:38.193Z,98925.22
2019-03-15T00:24:07.563Z,98928.48
2019-03-15T00:26:36.932Z,98918.84
2019-03-15T00:29:06.299Z,98933.73
2019-03-15T00:31:35.957Z,98935.23
2019-03-15T00:34:05.402Z,98935.11
2019-03-15T00:36:34.771Z,98937.89
2019-03-15T00:39:05.575Z,98931.84
2019-03-15T00:41:34.939Z,98940.39
2019-03-15T00:44:04.379Z,98942.48
2019-03-15T00:46:33.745Z,98938.92
2019-03-15T00:49:03.118Z,98931.81
2019-03-15T00:51:32.481Z,98943.08
2019-03-15T00:54:01.862Z,98938.77
2019-03-15T00:56:31.227Z,98940.77
2019-03-15T00:59:00.597Z,98944.41
2019-03-15T01:01:30.005Z,98943.50
2019-03-15T01:03:59.379Z,98945.34
2019-03-15T01:06:28.753Z,98943.05
2019-03-15T01:08:58.384Z,98941.66
2019-03-15T01:11:28.321Z,98939.68
2019-03-15T01:13:58.338Z,98936.81
2019-03-15T01:16:27.948Z,98935.34
2019-03-15T01:18:57.308Z,98927.34
2019-03-15T01:21:26.701Z,98928.55
2019-03-15T01:23:56.064Z,98932.23
2019-03-15T01:26:25.442Z,98926.89
2019-03-15T01:28:54.798Z,98920.13
2019-03-15T01:31:24.209Z,98933.89
2019-03-15T01:33:53.542Z,98924.55
2019-03-15T01:36:22.916Z,98923.56
2019-03-15T01:38:52.282Z,98928.64
2019-03-15T01:41:21.658Z,98917.27
2019-03-15T01:43:51.024Z,98914.60
2019-03-15T01:46:20.390Z,98913.39
2019-03-15T01:48:49.747Z,98910.37
2019-03-15T01:51:19.122Z,98915.14
2019-03-15T01:53:48.624Z,98905.91
2019-03-15T01:56:17.943Z,98903.89
2019-03-15T01:58:47.307Z,98905.97
2019-03-15T02:01:16.678Z,98910.02
2019-03-15T02:03:46.274Z,98893.42
2019-03-15T02:06:17.472Z,98892.23
2019-03-15T02:08:46.876Z,98892.06
2019-03-15T02:11:16.292Z,98889.80
2019-03-15T02:13:45.896Z,98890.70
2019-03-15T02:16:15.270Z,98875.06
2019-03-15T02:18:44.636Z,98871.05
2019-03-15T02:21:14.004Z,98871.19
2019-03-15T02:23:44.405Z,98875.38
2019-03-15T02:26:13.774Z,98860.45
2019-03-15T02:28:43.461Z,98861.75
2019-03-15T02:31:13.066Z,98862.59
2019-03-15T02:33:42.462Z,98855.70
2019-03-15T02:36:12.293Z,98860.38
2019-03-15T02:38:43.189Z,98854.93
2019-03-15T02:41:12.964Z,98857.03
2019-03-15T02:43:42.322Z,98862.34
2019-03-15T02:46:11.702Z,98847.55
2019-03-15T02:48:41.153Z,98844.47
2019-03-15T02:51:10.507Z,98835.15
2019-03-15T02:53:39.868Z,98832.50
2019-03-15T02:56:09.252Z,98843.58
2019-03-15T02:58:38.942Z,98833.13
2019-03-15T03:01:08.311Z,98830.50
2019-03-15T03:03:38.009Z,98829.09
2019-03-15T03:06:07.383Z,98825.13
2019-03-15T03:08:36.740Z,98821.45
2019-03-15T03:11:06.111Z,98819.06
2019-03-15T03:13:35.475Z,98834.42
2019-03-15T03:16:04.921Z,98828.40
2019-03-15T03:18:34.702Z,98817.44
2019-03-15T03:21:04.190Z,98814.70
2019-03-15T03:23:33.556Z,98815.75
2019-03-15T03:26:02.920Z,98817.31
2019-03-15T03:28:32.311Z,98809.88
2019-03-15T03:31:01.705Z,98813.76
2019-03-15T03:33:31.339Z,98814.17
2019-03-15T03:36:01.059Z,98810.70
2019-03-15T03:38:30.646Z,98812.48
2019-03-15T03:41:00.085Z,98811.09
2019-03-15T03:43:29.459Z,98812.17
2019-03-15T03:45:58.835Z,98806.98
2019-03-15T03:48:28.226Z,98811.80
2019-03-15T03:51:00.068Z,98816.69
2019-03-15T03:53:28.702Z,98814.77
2019-03-15T03:55:58.136Z,98805.39
2019-03-15T03:58:27.523Z,98809.53
2019-03-15T04:00:57.115Z,98806.02
2019-03-15T04:03:26.558Z,98808.18
2019-03-15T04:05:56.201Z,98790.55
2019-03-15T04:08:25.575Z,98796.21
2019-03-15T04:10:54.940Z,98788.62
2019-03-15T04:13:24.317Z,98794.53
2019-03-15T04:15:53.823Z,98789.31
2019-03-15T04:18:23.250Z,98784.82
2019-03-15T04:20:52.620Z,98791.34
2019-03-15T04:23:21.986Z,98787.70
2019-03-15T04:25:51.341Z,98785.36
2019-03-15T04:28:20.725Z,98784.25
2019-03-15T04:30:50.289Z,98775.84
2019-03-15T04:33:19.671Z,98785.08
2019-03-15T04:35:49.075Z,98781.22
2019-03-15T04:38:18.408Z,98783.12
2019-03-15T04:40:47.770Z,98765.20
2019-03-15T04:43:17.143Z,98775.58
2019-03-15T04:45:46.809Z,98774.13
2019-03-15T04:48:16.179Z,98775.78
2019-03-15T04:50:45.536Z,98764.03
2019-03-15T04:53:15.194Z,98759.28
2019-03-15T04:55:44.583Z,98758.05
2019-03-15T04:58:14.242Z,98754.81
2019-03-15T05:00:43.604Z,98756.46
2019-03-15T05:03:12.986Z,98758.33
2019-03-15T05:05:42.367Z,98752.35
2019-03-15T05:08:12.055Z,98754.19
2019-03-15T05:10:41.424Z,98748.73
2019-03-15T05:13:10.785Z,98745.34
2019-03-15T05:15:40.194Z,98744.77
2019-03-15T05:18:09.808Z,98735.50
2019-03-15T05:20:39.256Z,98729.64
2019-03-15T05:23:08.701Z,98740.62
2019-03-15T05:25:38.071Z,98736.03
2019-03-15T05:28:07.437Z,98741.69
2019-03-15T05:30:36.795Z,98734.88
2019-03-15T05:33:06.427Z,98724.12
2019-03-15T05:35:35.809Z,98723.40
2019-03-15T05:38:05.169Z,98723.13
2019-03-15T05:40:35.461Z,98719.69
2019-03-15T05:43:04.811Z,98721.80
2019-03-15T05:45:34.185Z,98721.14
2019-03-15T05:48:03.550Z,98721.70
2019-03-15T05:50:33.248Z,98710.16
2019-03-15T05:53:02.610Z,98713.61
2019-03-15T05:55:32.301Z,98707.59
2019-03-15T05:58:01.657Z,98703.05
2019-03-15T06:00:31.025Z,98697.16
2019-03-15T06:03:00.400Z,98703.48
2019-03-15T06:05:29.750Z,98703.67
2019-03-15T06:07:59.113Z,98696.96
2019-03-15T06:10:28.489Z,98695.00
2019-03-15T06:12:58.174Z,98688.80
2019-03-15T06:15:27.562Z,98684.59
2019-03-15T06:17:56.913Z,98684.47
2019-03-15T06:20:26.287Z,98667.93
2019-03-15T06:22:55.650Z,98661.45
2019-03-15T06:25:25.059Z,98648.98
2019-03-15T06:27:54.669Z,98647.97
2019-03-15T06:30:24.038Z,98644.20
2019-03-15T06:32:53.746Z,98640.03
2019-03-15T06:35:23.122Z,98636.08
2019-03-15T06:37:52.498Z,98618.94
2019-03-15T06:40:21.864Z,98624.66
2019-03-15T06:42:51.241Z,98625.52
2019-03-15T06:45:20.617Z,98610.71
2019-03-15T06:47:49.986Z,98613.69
2019-03-15T06:50:19.351Z,98619.44
2019-03-15T06:52:48.718Z,98607.58
2019-03-15T06:55:18.079Z,98603.72
2019-03-15T06:57:47.778Z,98599.80
2019-03-15T07:00:17.230Z,98598.78
2019-03-15T07:02:46.848Z,98602.89
2019-03-15T07:05:16.231Z,98590.64
2019-03-15T07:07:46.551Z,98587.73
2019-03-15T07:10:15.909Z,98600.06
2019-03-15T07:12:45.289Z,98599.36
2019-03-15T07:15:15.184Z,98582.48
2019-03-15T07:17:44.568Z,98589.28
2019-03-15T07:20:17.939Z,98583.44
2019-03-15T07:22:47.322Z,98581.91
2019-03-15T07:25:16.918Z,98581.13
2019-03-15T07:27:46.525Z,98583.89
2019-03-15T07:30:16.741Z,98580.73
2019-03-15T07:32:46.121Z,98564.03
2019-03-15T07:35:15.486Z,98581.08
2019-03-15T07:37:45.734Z,98567.41
2019-03-15T07:40:15.743Z,98569.89
2019-03-15T07:42:45.118Z,98572.48
2019-03-15T07:45:15.122Z,98582.84
2019-03-15T07:47:44.502Z,98583.91
2019-03-15T07:50:18.640Z,98581.11
2019-03-15T07:52:48.204Z,98565.63
2019-03-15T07:55:18.147Z,98577.98
2019-03-15T07:57:47.655Z,98582.69
2019-03-15T08:00:18.396Z,98579.92
2019-03-15T08:02:48.715Z,98579.03
2019-03-15T08:05:18.584Z,98566.04
2019-03-15T08:07:48.019Z,98579.08
2019-03-15T08:10:17.574Z,98581.86
2019-03-15T08:12:49.636Z,98591.08
2019-03-15T08:15:19.079Z,98578.86
2019-03-15T08:17:48.851Z,98583.58
2019-03-15T08:20:18.472Z,98593.56
2019-03-15T08:22:48.025Z,98593.16
2019-03-15T08:25:17.691Z,98589.43
2019-03-15T08:27:47.573Z,98576.34
2019-03-15T08:30:18.574Z,98585.67
2019-03-15T08:32:48.446Z,98598.41
2019-03-15T08:35:18.355Z,98598.64
2019-03-15T08:37:48.271Z,98598.59
2019-03-15T08:40:21.690Z,98603.91
2019-03-15T08:43:08.438Z,98600.77
2019-03-15T08:45:48.969Z,98604.63
2019-03-15T08:48:18.868Z,98605.06
2019-03-15T08:50:57.332Z,98603.53
2019-03-15T08:53:29.027Z,98606.15
2019-03-15T08:59:54.286Z,98608.04
2019-03-15T09:01:59.246Z,98609.14
2019-03-15T09:04:29.076Z,98611.55
2019-03-15T09:07:26.149Z,98618.33
2019-03-15T09:10:03.392Z,98608.88
2019-03-15T09:12:32.719Z,98623.09
2019-03-15T09:15:02.207Z,98630.36
2019-03-15T09:17:33.658Z,98628.47
2019-03-15T09:20:50.736Z,98638.39
2019-03-15T09:22:59.232Z,98630.55
2019-03-15T09:25:28.599Z,98640.73
2019-03-15T09:27:57.959Z,98633.73
2019-03-15T09:30:27.332Z,98631.02
2019-03-15T09:32:56.699Z,98634.47
2019-03-15T09:35:26.072Z,98635.53
2019-03-15T09:37:55.757Z,98640.14
2019-03-15T09:40:25.847Z,98649.10
2019-03-15T09:42:55.578Z,98642.31
2019-03-15T09:45:24.936Z,98644.87
2019-03-15T09:47:54.298Z,98645.22
2019-03-15T09:50:33.933Z,98644.21
2019-03-15T09:52:54.768Z,98652.80
2019-03-15T09:55:32.997Z,98645.56
2019-03-15T09:57:55.301Z,98656.38
2019-03-15T10:00:25.432Z,98645.85
2019-03-15T10:02:56.117Z,98647.27
2019-03-15T10:05:25.695Z,98642.97
2019-03-15T10:07:55.059Z,98648.06
2019-03-15T10:10:24.431Z,98645.22
2019-03-15T10:13:05.369Z,98653.31
2019-03-15T10:15:26.364Z,98657.55
2019-03-15T10:17:56.041Z,98668.30
2019-03-15T10:20:25.764Z,98671.98
2019-03-15T10:23:05.229Z,98677.50
2019-03-15T10:25:26.225Z,98680.05
2019-03-15T10:27:55.591Z,98682.48
2019-03-15T10:30:24.959Z,98681.42
2019-03-15T10:32:54.327Z,98675.20
2019-03-15T10:35:23.717Z,98679.30
2019-03-15T10:37:53.065Z,98687.27
2019-03-15T10:40:24.358Z,98689.70
2019-03-15T10:42:55.611Z,98691.33
2019-03-15T10:45:25.167Z,98690.55
2019-03-15T10:47:54.877Z,98657.77
2019-03-15T10:50:24.246Z,98669.95
2019-03-15T10:52:54.083Z,98691.51
2019-03-15T10:55:23.571Z,98690.72
2019-03-15T10:57:52.920Z,98699.66
2019-03-15T11:00:22.472Z,98705.41
2019-03-15T11:02:51.831Z,98686.12
2019-03-15T11:05:21.207Z,98717.91
2019-03-15T11:07:50.569Z,98693.26
2019-03-15T11:10:20.538Z,98729.77
2019-03-15T11:12:50.129Z,98737.27
2019-03-15T11:15:19.559Z,98743.16
2019-03-15T11:17:48.928Z,98746.14
2019-03-15T11:20:18.304Z,98747.09
2019-03-15T11:22:47.681Z,98746.95
2019-03-15T11:25:17.088Z,98744.09
2019-03-15T11:27:46.538Z,98741.02
2019-03-15T11:30:16.226Z,98755.26
2019-03-15T11:32:45.618Z,98752.52
2019-03-15T11:35:14.967Z,98764.52
2019-03-15T11:37:44.348Z,98764.09
2019-03-15T11:40:19.420Z,98744.67
2019-03-15T11:42:48.762Z,98754.06
2019-03-15T11:45:18.196Z,98767.09
2019-03-15T11:48:02.569Z,98771.91
2019-03-15T11:50:20.715Z,98772.51
2019-03-15T11:52:50.317Z,98754.12
2019-03-15T11:55:19.678Z,98767.42
2019-03-15T11:57:49.327Z,98769.36
2019-03-15T12:00:20.044Z,98758.45
2019-03-15T12:02:49.493Z,98764.11
2019-03-15T12:05:18.860Z,98745.11
2019-03-15T12:07:48.226Z,98763.42
2019-03-15T12:10:18.199Z,98762.20
2019-03-15T12:12:47.583Z,98760.23
2019-03-15T12:15:20.704Z,98763.68
2019-03-15T12:17:50.340Z,98760.95
2019-03-15T12:20:19.710Z,98768.22
2019-03-15T12:22:49.080Z,98766.30
2019-03-15T12:25:18.452Z,98759.65
2019-03-15T12:27:47.824Z,98740.25
2019-03-15T12:30:18.199Z,98742.00
2019-03-15T12:32:47.615Z,98733.88
2019-03-15T12:35:17.311Z,98733.11
2019-03-15T12:37:46.991Z,98723.95
2019-03-15T12:40:18.109Z,98719.28
2019-03-15T12:42:47.557Z,98728.25
2019-03-15T12:45:17.525Z,98730.98
2019-03-15T12:47:46.925Z,98728.84
2019-03-15T12:50:16.864Z,98728.57
2019-03-15T12:52:48.023Z,98731.64
2019-03-15T12:55:17.302Z,98716.17
2019-03-15T12:57:49.328Z,98732.40
2019-03-15T13:00:20.387Z,98720.61
2019-03-15T13:02:49.778Z,98721.34
2019-03-15T13:05:19.145Z,98711.88
2019-03-15T13:07:48.524Z,98722.32
2019-03-15T13:10:24.950Z,98732.81
2019-03-15T13:12:54.323Z,98742.48
2019-03-15T13:15:23.767Z,98723.34
2019-03-15T13:17:53.147Z,98733.73
2019-03-15T13:20:22.817Z,98727.79
2019-03-15T13:22:52.197Z,98736.92
2019-03-15T13:25:21.563Z,98725.22
2019-03-15T13:27:51.695Z,98722.33
2019-03-15T13:30:21.056Z,98705.50
2019-03-15T13:32:50.469Z,98729.81
2019-03-15T13:35:19.929Z,98741.33
2019-03-15T13:37:49.387Z,98729.31
2019-03-15T13:40:21.478Z,98710.14
2019-03-15T13:42:50.866Z,98731.16
2019-03-15T13:45:20.383Z,98732.84
2019-03-15T13:47:49.984Z,98732.71
2019-03-15T13:50:21.756Z,98748.72
2019-03-15T13:52:52.149Z,98737.19
2019-03-15T13:55:22.652Z,98713.86
2019-03-15T13:57:52.022Z,98750.81
2019-03-15T14:00:21.755Z,98737.45
2019-03-15T14:02:51.125Z,98745.20
2019-03-15T14:05:20.496Z,98739.44
2019-03-15T14:07:49.866Z,98739.60
2019-03-15T14:10:19.238Z,98752.89
2019-03-15T14:12:48.886Z,98754.17
2019-03-15T14:15:22.023Z,98737.35
2019-03-15T14:17:51.631Z,98746.91
2019-03-15T14:20:21.023Z,98741.09
2019-03-15T14:22:50.378Z,98731.25
2019-03-15T14:25:28.385Z,98754.03
2019-03-15T14:27:57.752Z,98748.89
2019-03-15T14:30:27.128Z,98753.16
2019-03-15T14:32:56.655Z,98739.95
2019-03-15T14:35:26.022Z,98712.90
2019-03-15T14:37:55.439Z,98725.52
2019-03-15T14:40:25.068Z,98732.95
2019-03-15T14:42:54.550Z,98727.53
2019-03-15T14:45:24.211Z,98732.92
2019-03-15T14:47:53.699Z,98733.78
2019-03-15T14:50:23.081Z,98720.23
2019-03-15T14:52:52.438Z,98726.43
2019-03-15T14:55:21.811Z,98735.75
2019-03-15T14:57:53.289Z,98721.25
2019-03-15T15:00:25.807Z,98748.52
2019-03-15T15:02:55.335Z,98743.30
2019-03-15T15:05:24.711Z,98738.53
2019-03-15T15:07:54.073Z,98742.22
2019-03-15T15:10:23.447Z,98749.53
2019-03-15T15:12:52.809Z,98746.39
2019-03-15T15:15:22.187Z,98756.91
2019-03-15T15:17:51.557Z,98735.17
2019-03-15T15:20:20.931Z,98739.45
2019-03-15T15:22:50.295Z,98728.12
2019-03-15T15:25:19.678Z,98723.08
2019-03-15T15:27:49.421Z,98714.63
2019-03-15T15:30:19.514Z,98733.77
2019-03-15T15:32:48.870Z,98738.84
2019-03-15T15:35:18.248Z,98749.01
2019-03-15T15:37:47.613Z,98748.27
2019-03-15T15:40:18.701Z,98737.35
2019-03-15T15:42:48.378Z,98742.80
2019-03-15T15:45:17.823Z,98731.71
2019-03-15T15:47:47.187Z,98729.72
2019-03-15T15:50:17.547Z,98735.02
2019-03-15T15:52:46.925Z,98714.48
2019-03-15T15:55:17.144Z,98734.86
2019-03-15T15:57:46.501Z,98724.80
2019-03-15T16:00:18.155Z,98720.34
2019-03-15T16:02:47.512Z,98715.05
2019-03-15T16:05:16.955Z,98720.22
2019-03-15T16:07:46.322Z,98721.03
2019-03-15T16:10:18.222Z,98719.55
2019-03-15T16:12:49.221Z,98702.94
2019-03-15T16:15:20.297Z,98703.18
2019-03-15T16:17:49.939Z,98727.56
2019-03-15T16:20:19.313Z,98709.97
2019-03-15T16:22:48.697Z,98718.70
2019-03-15T16:25:18.058Z,98713.63
2019-03-15T16:27:47.764Z,98703.58
2019-03-15T16:30:19.600Z,98708.25
2019-03-15T16:32:49.037Z,98715.91
2019-03-15T16:35:18.405Z,98732.86
2019-03-15T16:37:47.781Z,98716.17
2019-03-15T16:40:17.546Z,98698.25
2019-03-15T16:42:47.198Z,98727.73
2019-03-15T16:45:27.363Z,98715.83
2019-03-15T16:47:56.732Z,98730.63
2019-03-15T16:50:26.087Z,98722.78
2019-03-15T16:52:55.469Z,98711.73
2019-03-15T16:55:24.836Z,98705.83
2019-03-15T16:57:54.208Z,98694.26
2019-03-15T17:00:23.572Z,98705.87
2019-03-15T17:02:52.942Z,98704.36
2019-03-15T17:05:22.588Z,98717.76
2019-03-15T17:07:51.957Z,98725.09
2019-03-15T17:10:21.396Z,98722.40
2019-03-15T17:12:50.834Z,98736.13
2019-03-15T17:15:23.685Z,98735.28
2019-03-15T17:17:53.045Z,98735.57
2019-03-15T17:20:22.400Z,98743.60
2019-03-15T17:22:51.783Z,98755.86
2019-03-15T17:25:21.492Z,98762.17
2019-03-15T17:27:50.888Z,98756.59
2019-03-15T17:30:20.312Z,98753.18
2019-03-15T17:32:49.692Z,98764.32
2019-03-15T17:35:20.709Z,98760.82
2019-03-15T17:37:50.479Z,98771.64
2019-03-15T17:40:23.119Z,98774.37
2019-03-15T17:42:52.493Z,98772.05
2019-03-15T17:45:21.882Z,98781.20
2019-03-15T17:47:51.565Z,98777.78
2019-03-15T17:50:23.270Z,98775.16
2019-03-15T17:52:52.647Z,98785.00
2019-03-15T17:55:22.083Z,98780.95
2019-03-15T17:57:51.526Z,98771.29
2019-03-15T18:00:45.191Z,98789.56
2019-03-15T18:03:21.313Z,98773.63
2019-03-15T18:05:46.033Z,98795.02
2019-03-15T18:08:15.406Z,98799.79
2019-03-15T18:10:44.770Z,98799.29
2019-03-15T18:13:14.222Z,98800.22
2019-03-15T18:15:43.583Z,98817.77
2019-03-15T18:18:12.961Z,98808.65
2019-03-15T18:20:42.326Z,98821.03
2019-03-15T18:23:11.678Z,98817.72
2019-03-15T18:25:41.059Z,98812.91
2019-03-15T18:28:10.492Z,98825.89
2019-03-15T18:30:40.894Z,98832.78
2019-03-15T18:33:10.272Z,98822.98
2019-03-15T18:35:39.654Z,98817.05
2019-03-15T18:38:09.017Z,98833.17
2019-03-15T18:40:38.397Z,98846.77
2019-03-15T18:43:08.048Z,98836.34
2019-03-15T18:45:37.501Z,98848.75
2019-03-15T18:48:06.865Z,98843.77
2019-03-15T18:50:36.292Z,98829.41
2019-03-15T18:53:05.646Z,98826.52
2019-03-15T18:55:35.022Z,98838.53
2019-03-15T18:58:04.394Z,98848.30
2019-03-15T19:00:33.774Z,98867.52
2019-03-15T19:03:03.144Z,98864.55
2019-03-15T19:05:32.527Z,98873.03
2019-03-15T19:08:02.215Z,98870.95
2019-03-15T19:10:31.589Z,98874.97
2019-03-15T19:13:01.751Z,98856.30
2019-03-15T19:15:31.126Z,98867.23
2019-03-15T19:18:00.511Z,98881.25
2019-03-15T19:20:29.932Z,98877.88
2019-03-15T19:22:59.507Z,98876.55
2019-03-15T19:25:28.895Z,98883.05
2019-03-15T19:27:58.273Z,98907.22
2019-03-15T19:30:27.658Z,98912.57
2019-03-15T19:32:57.028Z,98960.61
2019-03-15T19:35:26.395Z,98956.08
2019-03-15T19:37:55.774Z,98959.14
2019-03-15T19:40:25.147Z,98949.17
2019-03-15T19:42:54.757Z,98960.48
2019-03-15T19:45:24.132Z,98950.92
2019-03-15T19:47:53.515Z,98952.25
2019-03-15T19:50:23.305Z,98970.53
2019-03-15T19:52:52.673Z,98968.17
2019-03-15T19:55:22.050Z,98968.96
2019-03-15T19:57:51.414Z,98980.86
2019-03-15T20:00:22.147Z,98993.65
2019-03-15T20:02:51.501Z,98990.35
2019-03-15T20:05:20.873Z,98990.72
2019-03-15T20:07:50.396Z,98995.96
2019-03-15T20:10:19.923Z,98993.86
2019-03-15T20:12:49.262Z,98998.36
2019-03-15T20:15:18.967Z,99007.73
2019-03-15T20:17:48.341Z,99011.21
2019-03-15T20:20:19.523Z,99028.22
2019-03-15T20:22:48.977Z,99028.16
2019-03-15T20:27:54.193Z,99037.08
2019-03-15T20:30:27.145Z,99039.29
2019-03-15T20:32:56.519Z,99037.34
2019-03-15T20:35:25.893Z,99032.67
2019-03-15T20:37:55.577Z,99041.44
2019-03-15T20:40:24.959Z,99040.16
2019-03-15T20:42:54.592Z,99030.50
2019-03-15T20:45:31.107Z,99033.17
2019-03-15T20:48:00.723Z,99024.77
2019-03-15T20:50:30.088Z,99025.70
2019-03-15T20:53:09.526Z,99037.16
2019-03-15T20:55:30.594Z,99049.34
2019-03-15T20:57:59.968Z,99044.44
2019-03-15T21:00:35.855Z,99056.91
2019-03-15T21:03:00.687Z,99040.50
2019-03-15T21:05:30.269Z,99045.11
2019-03-15T21:08:00.261Z,99050.77
2019-03-15T21:10:29.635Z,99043.56
2019-03-15T21:13:12.047Z,99056.23
2019-03-15T21:15:46.496Z,99063.72
2019-03-15T21:18:16.575Z,99054.46
2019-03-15T21:20:51.285Z,99073.73
2019-03-15T21:23:36.955Z,99053.95
2019-03-15T21:26:06.454Z,99051.78
2019-03-15T21:28:36.054Z,99044.02
2019-03-15T21:31:15.052Z,99044.90
2019-03-15T21:33:44.793Z,99069.23
2019-03-15T21:36:14.598Z,99069.13
2019-03-15T21:38:48.483Z,99045.38
2019-03-15T21:41:17.087Z,99078.20
2019-03-15T21:43:48.538Z,99089.61
2019-03-15T21:46:18.134Z,99102.09
2019-03-15T21:48:47.535Z,99092.45
2019-03-15T21:51:19.319Z,99087.81
2019-03-15T21:53:49.155Z,99101.91
2019-03-15T21:56:19.734Z,99106.39
2019-03-15T21:58:53.686Z,99118.91
2019-03-15T22:01:27.102Z,99101.92
2019-03-15T22:03:58.225Z,99120.22
2019-03-15T22:06:29.821Z,99122.13
2019-03-15T22:09:01.797Z,99113.70
2019-03-15T22:11:31.407Z,99127.58
2019-03-15T22:14:01.035Z,99131.86
2019-03-15T22:16:31.609Z,99135.93
2019-03-15T22:19:01.384Z,99138.98
2019-03-15T22:21:31.420Z,99131.77
2019-03-15T22:24:01.053Z,99131.58
2019-03-15T22:26:32.089Z,99139.45
2019-03-15T22:29:04.985Z,99137.64
2019-03-15T22:31:34.698Z,99135.20
2019-03-15T22:34:04.356Z,99136.24
2019-03-15T22:36:36.805Z,99132.78
2019-03-15T22:39:07.630Z,99139.41
2019-03-15T22:41:38.970Z,99138.72
2019-03-15T22:44:10.435Z,99140.37
2019-03-15T22:46:40.030Z,99155.55
2019-03-15T22:49:09.592Z,99154.19
2019-03-15T22:51:39.123Z,99154.66
2019-03-15T22:54:08.603Z,99152.66
2019-03-15T22:56:38.319Z,99168.66
2019-03-15T22:59:08.537Z,99175.94
2019-03-15T23:01:39.256Z,99180.03
2019-03-15T23:04:08.669Z,99175.05
2019-03-15T23:06:41.340Z,99178.88
2019-03-15T23:09:10.758Z,99182.12
2019-03-15T23:11:41.138Z,99190.28
2019-03-15T23:14:13.037Z,99169.52
2019-03-15T23:16:45.195Z,99185.34
2019-03-15T23:19:14.701Z,99191.82
2019-03-15T23:21:44.513Z,99197.44
2019-03-15T23:24:13.979Z,99204.12
2019-03-15T23:26:44.488Z,99202.63
2019-03-15T23:29:16.303Z,99203.73
2019-03-15T23:31:46.071Z,99206.86
2019-03-15T23:34:34.768Z,99216.02
2019-03-15T23:37:04.204Z,99216.70
2019-03-15T23:39:33.587Z,99214.47
2019-03-15T23:42:02.960Z,99218.34
2019-03-15T23:44:32.344Z,99219.79
2019-03-15T23:47:01.715Z,99225.70
2019-03-15T23:49:31.104Z,99225.04
2019-03-15T23:52:00.480Z,99231.48
2019-03-15T23:54:29.848Z,99223.87
2019-03-15T23:56:59.220Z,99231.81
2019-03-15T23:59:28.854Z,99242.28
